| time (UTC) | temp F | wind direction | speed MPH | gust MPH | rain 1hr in | rain 24hr in | rain mn in | humidity % | barometer mb |
| 20260510145946 | 53 | 178 | 0.0 | 0.0 | 0.07 | 0.11 | 0.11 | 99 | 1016.5 |
| 20260510145442 | 53 | 174 | 0.0 | 0.0 | 0.00 | 0.10 | 0.10 | 99 | 1016.6 |
| 20260510144939 | 53 | 174 | 0.0 | 0.0 | 0.00 | 0.10 | 0.10 | 99 | 1016.3 |
| 20260510144436 | 53 | 186 | 0.0 | 0.0 | 0.00 | 0.10 | 0.10 | 99 | 1016.5 |
| 20260510143931 | 53 | 178 | 0.0 | 0.0 | 0.00 | 0.10 | 0.10 | 99 | 1016.5 |
| 20260510143427 | 53 | 179 | 0.0 | 0.0 | 0.00 | 0.10 | 0.10 | 99 | 1016.3 |
| 20260510142925 | 53 | 183 | 0.0 | 0.0 | 0.00 | 0.10 | 0.10 | 99 | 1016.3 |
| 20260510142421 | 53 | 183 | 0.0 | 0.0 | 0.05 | 0.10 | 0.10 | 99 | 1016.2 |
| 20260510141917 | 53 | 178 | 0.0 | 0.0 | 0.05 | 0.10 | 0.10 | 99 | 1016.3 |
| 20260510141415 | 53 | 175 | 1.0 | 1.0 | 0.07 | 0.09 | 0.09 | 99 | 1016.0 |
| 20260510140912 | 53 | 183 | 0.0 | 0.0 | 0.07 | 0.09 | 0.09 | 99 | 1015.8 |
| 20260510140408 | 53 | 173 | 1.0 | 1.0 | 0.05 | 0.08 | 0.08 | 99 | 1016.1 |
| 20260510135907 | 53 | 188 | 1.0 | 1.0 | 0.12 | 0.08 | 0.08 | 99 | 1016.3 |
| 20260510135404 | 53 | 165 | 1.0 | 1.0 | 0.26 | 0.07 | 0.07 | 99 | 1015.8 |
| 20260510134901 | 53 | 183 | 0.0 | 0.0 | 0.31 | 0.06 | 0.06 | 98 | 1015.8 |
| 20260510134357 | 53 | 172 | 1.0 | 1.0 | 0.19 | 0.04 | 0.04 | 98 | 1016.2 |
| 20260510133853 | 53 | 183 | 0.0 | 1.0 | 0.00 | 0.01 | 0.01 | 98 | 1016.4 |
| 20260510133350 | 53 | 196 | 1.0 | 2.0 | 0.00 | 0.01 | 0.01 | 97 | 1015.9 |
| 20260510132845 | 53 | 172 | 1.0 | 1.0 | 0.00 | 0.01 | 0.01 | 97 | 1015.8 |
| 20260510132344 | 53 | 182 | 1.0 | 2.0 | 0.00 | 0.01 | 0.01 | 97 | 1015.7 |
| 20260510131840 | 53 | 179 | 1.0 | 2.0 | 0.00 | 0.01 | 0.01 | 97 | 1015.8 |
| 20260510131338 | 53 | 186 | 1.0 | 1.0 | 0.00 | 0.01 | 0.01 | 97 | 1015.7 |
| 20260510130834 | 53 | 177 | 1.0 | 1.0 | 0.00 | 0.01 | 0.01 | 97 | 1015.8 |
| 20260510130331 | 53 | 173 | 2.0 | 3.0 | 0.00 | 0.01 | 0.01 | 97 | 1015.8 |
| 20260510125827 | 53 | 176 | 1.0 | 1.0 | 0.00 | 0.01 | 0.01 | 97 | 1015.6 |
| 20260510125324 | 53 | 183 | 0.0 | 0.0 | 0.00 | 0.01 | 0.01 | 97 | 1015.5 |
| 20260510124821 | 53 | 184 | 1.0 | 1.0 | 0.00 | 0.01 | 0.01 | 98 | 1015.6 |
| 20260510124318 | 53 | 182 | 1.0 | 1.0 | 0.00 | 0.01 | 0.01 | 98 | 1015.5 |
| 20260510123813 | 53 | 203 | 2.0 | 2.0 | 0.00 | 0.01 | 0.01 | 98 | 1015.6 |
| 20260510123309 | 52 | 172 | 0.0 | 1.0 | 0.00 | 0.01 | 0.01 | 98 | 1015.8 |
| 20260510122806 | 52 | 179 | 1.0 | 1.0 | 0.00 | 0.01 | 0.01 | 99 | 1015.5 |
| 20260510122305 | 52 | 188 | 0.0 | 0.0 | 0.00 | 0.01 | 0.01 | 99 | 1015.6 |
| 20260510121758 | 52 | 172 | 0.0 | 1.0 | 0.00 | 0.01 | 0.01 | 99 | 1015.6 |
| 20260510121256 | 52 | 187 | 1.0 | 1.0 | 0.00 | 0.01 | 0.01 | 99 | 1015.5 |
| 20260510120753 | 52 | 183 | 1.0 | 1.0 | 0.00 | 0.01 | 0.01 | 99 | 1015.3 |
| 20260510120249 | 52 | 187 | 1.0 | 1.0 | 0.00 | 0.01 | 0.01 | 99 | 1015.3 |
| 20260510115745 | 52 | 178 | 2.0 | 2.0 | 0.00 | 0.01 | 0.01 | 99 | 1015.2 |
| 20260510115244 | 52 | 201 | 2.0 | 5.0 | 0.00 | 0.01 | 0.01 | 99 | 1015.1 |
| 20260510114738 | 52 | 175 | 2.0 | 3.0 | 0.05 | 0.01 | 0.01 | 99 | 1015.2 |
| 20260510114236 | 52 | 168 | 1.0 | 2.0 | 0.05 | 0.01 | 0.01 | 99 | 1015.1 |
| 20260510113731 | 52 | 208 | 3.0 | 3.0 | 0.00 | 0.00 | 0.00 | 99 | 1015.3 |
| 20260510113228 | 51 | 209 | 1.0 | 1.0 | 0.00 | 0.00 | 0.00 | 99 | 1015.3 |
| 20260510112725 | 51 | 189 | 1.0 | 1.0 | 0.00 | 0.00 | 0.00 | 99 | 1015.2 |
| 20260510112221 | 51 | 189 | 1.0 | 1.0 | 0.00 | 0.00 | 0.00 | 99 | 1015.3 |
| 20260510111717 | 51 | 130 | 3.0 | 5.0 | 0.00 | 0.00 | 0.00 | 99 | 1015.2 |
| 20260510111214 | 51 | 171 | 1.0 | 1.0 | 0.00 | 0.00 | 0.00 | 99 | 1015.0 |
| 20260510110709 | 51 | 164 | 1.0 | 3.0 | 0.00 | 0.00 | 0.00 | 99 | 1015.1 |
| 20260510110207 | 51 | 144 | 2.0 | 2.0 | 0.00 | 0.00 | 0.00 | 99 | 1015.0 |
| 20260510105706 | 51 | 174 | 1.0 | 2.0 | 0.00 | 0.00 | 0.00 | 99 | 1015.0 |
| 20260510105201 | 51 | 160 | 1.0 | 2.0 | 0.00 | 0.00 | 0.00 | 99 | 1014.7 |
| 20260510104658 | 51 | 161 | 3.0 | 3.0 | 0.00 | 0.00 | 0.00 | 99 | 1014.7 |
| 20260510104155 | 51 | 172 | 0.0 | 1.0 | 0.00 | 0.00 | 0.00 | 99 | 1014.5 |
| 20260510103652 | 51 | 187 | 0.0 | 1.0 | 0.00 | 0.00 | 0.00 | 99 | 1014.7 |
| 20260510103149 | 51 | 178 | 0.0 | 1.0 | 0.00 | 0.00 | 0.00 | 99 | 1014.6 |
| 20260510102648 | 51 | 153 | 2.0 | 2.0 | 0.00 | 0.00 | 0.00 | 99 | 1014.2 |
| 20260510102145 | 51 | 159 | 2.0 | 2.0 | 0.00 | 0.00 | 0.00 | 99 | 1014.4 |
| 20260510101642 | 51 | 198 | 2.0 | 3.0 | 0.00 | 0.00 | 0.00 | 99 | 1014.2 |
| 20260510101141 | 51 | 190 | 2.0 | 2.0 | 0.00 | 0.00 | 0.00 | 99 | 1014.2 |
| 20260510100636 | 51 | 183 | 0.0 | 0.0 | 0.00 | 0.00 | 0.00 | 99 | 1014.3 |
| 20260510100134 | 0 | 0.0 | 0.0 | 0.00 | 0.00 | 0.00 | 1014.2 | ||
| 20260510095629 | 0 | 0.0 | 0.0 | 0.00 | 0.00 | 0.00 | 1014.3 | ||
| 20260510095125 | 0 | 0.0 | 0.0 | 0.00 | 0.00 | 0.00 | 1014.0 | ||
| 20260510094623 | 0 | 0.0 | 0.0 | 0.00 | 0.00 | 0.00 | 1014.3 | ||
| 20260510094119 | 51 | 190 | 1.0 | 2.0 | 0.00 | 0.00 | 0.00 | 99 | 1014.0 |
| 20260510093616 | 51 | 190 | 1.0 | 2.0 | 0.00 | 0.00 | 0.00 | 99 | 1014.0 |
| 20260510093113 | 51 | 166 | 2.0 | 3.0 | 0.00 | 0.00 | 0.00 | 99 | 1013.6 |
| 20260510092609 | 51 | 202 | 1.0 | 1.0 | 0.00 | 0.00 | 0.00 | 99 | 1013.4 |
| 20260510092109 | 51 | 177 | 1.0 | 1.0 | 0.00 | 0.00 | 0.00 | 99 | 1013.4 |
| 20260510091606 | 51 | 193 | 1.0 | 2.0 | 0.00 | 0.00 | 0.00 | 99 | 1013.7 |
| 20260510091102 | 51 | 193 | 4.0 | 5.0 | 0.00 | 0.00 | 0.00 | 99 | 1013.5 |
| 20260510090559 | 51 | 193 | 4.0 | 5.0 | 0.00 | 0.00 | 0.00 | 99 | 1013.6 |
| 20260510090055 | 51 | 188 | 1.0 | 1.0 | 0.00 | 0.00 | 0.00 | 99 | 1013.6 |
| 20260510085550 | 51 | 188 | 1.0 | 1.0 | 0.00 | 0.00 | 0.00 | 99 | 1013.7 |
| 20260510085046 | 51 | 192 | 0.0 | 1.0 | 0.00 | 0.00 | 0.00 | 99 | 1013.7 |
| 20260510084543 | 51 | 192 | 0.0 | 1.0 | 0.00 | 0.00 | 0.00 | 99 | 1013.7 |
| 20260510084040 | 51 | 170 | 0.0 | 0.0 | 0.00 | 0.00 | 0.00 | 99 | 1013.6 |
| 20260510083536 | 51 | 170 | 0.0 | 0.0 | 0.00 | 0.00 | 0.00 | 99 | 1013.6 |
| 20260510083032 | 0 | 0.0 | 0.0 | 0.00 | 0.00 | 0.00 | 1013.6 | ||
| 20260510082529 | 0 | 0.0 | 0.0 | 0.00 | 0.00 | 0.00 | 1013.8 | ||
| 20260510082025 | 51 | 182 | 1.0 | 1.0 | 0.00 | 0.00 | 0.00 | 99 | 1014.0 |
| 20260510081520 | 51 | 182 | 1.0 | 1.0 | 0.00 | 0.00 | 0.00 | 99 | 1013.8 |
| 20260510081016 | 51 | 174 | 1.0 | 1.0 | 0.00 | 0.00 | 0.00 | 99 | 1013.6 |
| 20260510080515 | 51 | 180 | 1.0 | 1.0 | 0.00 | 0.00 | 0.00 | 99 | 1013.6 |
| 20260510080012 | 51 | 175 | 1.0 | 2.0 | 0.00 | 0.00 | 0.00 | 99 | 1013.9 |
| 20260510075510 | 51 | 185 | 2.0 | 2.0 | 0.00 | 0.00 | 0.00 | 99 | 1013.6 |
| 20260510075006 | 51 | 185 | 2.0 | 2.0 | 0.00 | 0.00 | 0.00 | 99 | 1013.2 |
| 20260510074504 | 51 | 183 | 0.0 | 1.0 | 0.00 | 0.00 | 0.00 | 99 | 1013.1 |
| 20260510073959 | 51 | 164 | 1.0 | 1.0 | 0.00 | 0.00 | 0.00 | 99 | 1013.2 |
| 20260510073455 | 51 | 150 | 2.0 | 2.0 | 0.00 | 0.00 | 0.00 | 99 | 1012.7 |
| 20260510072952 | 51 | 150 | 1.0 | 2.0 | 0.00 | 0.00 | 0.00 | 99 | 1013.5 |
| 20260510072449 | 51 | 173 | 1.0 | 1.0 | 0.00 | 0.00 | 0.00 | 99 | 1013.8 |
| 20260510071944 | 51 | 179 | 1.0 | 1.0 | 0.00 | 0.00 | 0.00 | 99 | 1013.8 |
| 20260510071441 | 51 | 175 | 1.0 | 1.0 | 0.00 | 0.00 | 0.00 | 99 | 1013.9 |
| 20260510070939 | 51 | 172 | 1.0 | 1.0 | 0.00 | 0.00 | 0.00 | 99 | 1014.0 |
| 20260510070436 | 51 | 174 | 1.0 | 1.0 | 0.00 | 0.00 | 0.00 | 99 | 1014.1 |
| 20260510065932 | 51 | 172 | 0.0 | 0.0 | 0.00 | 0.00 | 0.00 | 99 | 1014.0 |
| 20260510065429 | 0 | 0.0 | 0.0 | 0.00 | 0.00 | 0.00 | 1014.0 | ||
| 20260510064924 | 0 | 0.0 | 0.0 | 0.00 | 0.00 | 0.00 | 1014.2 | ||
| 20260510064423 | 0 | 0.0 | 0.0 | 0.00 | 0.00 | 0.00 | 1014.3 | ||
| 20260510063919 | 0 | 0.0 | 0.0 | 0.00 | 0.00 | 0.00 | 1014.4 | ||
| 20260510063415 | 51 | 198 | 2.0 | 2.0 | 0.00 | 0.00 | 0.00 | 99 | 1014.4 |
| 20260510062913 | 51 | 198 | 2.0 | 2.0 | 0.00 | 0.00 | 0.00 | 99 | 1014.4 |
| 20260510062408 | 51 | 176 | 1.0 | 1.0 | 0.00 | 0.00 | 0.00 | 99 | 1014.3 |
| 20260510061904 | 51 | 183 | 1.0 | 1.0 | 0.00 | 0.00 | 0.00 | 99 | 1014.3 |
| 20260510061400 | 51 | 182 | 0.0 | 1.0 | 0.00 | 0.00 | 0.00 | 99 | 1014.2 |
| 20260510060856 | 51 | 173 | 1.0 | 1.0 | 0.00 | 0.00 | 0.00 | 99 | 1014.0 |
| 20260510060354 | 51 | 238 | 0.0 | 2.0 | 0.00 | 0.00 | 0.00 | 99 | 1014.0 |
| 20260510055850 | 51 | 183 | 0.0 | 0.0 | 0.00 | 0.00 | 0.00 | 99 | 1014.0 |
| 20260510055350 | 51 | 176 | 0.0 | 0.0 | 0.00 | 0.00 | 0.00 | 99 | 1014.1 |
| 20260510054848 | 51 | 182 | 0.0 | 0.0 | 0.00 | 0.00 | 0.00 | 99 | 1013.9 |
| 20260510054344 | 51 | 184 | 0.0 | 1.0 | 0.00 | 0.00 | 0.00 | 99 | 1014.1 |
| 20260510053839 | 51 | 187 | 0.0 | 0.0 | 0.00 | 0.00 | 0.00 | 99 | 1013.8 |
| 20260510053335 | 51 | 187 | 0.0 | 0.0 | 0.00 | 0.00 | 0.00 | 99 | 1013.8 |
| 20260510052832 | 51 | 188 | 0.0 | 0.0 | 0.00 | 0.00 | 0.00 | 99 | 1013.7 |
| 20260510052327 | 51 | 186 | 0.0 | 1.0 | 0.00 | 0.00 | 0.00 | 99 | 1013.7 |
| 20260510051824 | 51 | 180 | 1.0 | 1.0 | 0.00 | 0.00 | 0.00 | 99 | 1013.5 |
| 20260510051321 | 51 | 185 | 0.0 | 0.0 | 0.00 | 0.00 | 0.00 | 99 | 1013.7 |
| 20260510050818 | 51 | 183 | 0.0 | 0.0 | 0.00 | 0.00 | 0.00 | 99 | 1013.6 |
| 20260510050314 | 51 | 183 | 0.0 | 1.0 | 0.00 | 0.00 | 0.00 | 99 | 1013.6 |
| 20260510045811 | 51 | 183 | 1.0 | 1.0 | 0.00 | 0.00 | 0.00 | 99 | 1013.5 |
| 20260510045308 | 51 | 179 | 1.0 | 1.0 | 0.00 | 0.00 | 0.00 | 99 | 1013.8 |
| 20260510044805 | 51 | 182 | 0.0 | 0.0 | 0.00 | 0.00 | 0.00 | 99 | 1014.0 |
| 20260510044302 | 51 | 177 | 1.0 | 2.0 | 0.00 | 0.00 | 0.00 | 99 | 1013.8 |
| 20260510043758 | 51 | 185 | 0.0 | 0.0 | 0.00 | 0.00 | 0.00 | 99 | 1013.7 |
| 20260510043254 | 51 | 186 | 1.0 | 1.0 | 0.00 | 0.00 | 0.00 | 99 | 1013.8 |
| 20260510042752 | 51 | 183 | 0.0 | 0.0 | 0.00 | 0.00 | 0.00 | 99 | 1013.9 |
| 20260510042247 | 51 | 188 | 0.0 | 0.0 | 0.00 | 0.00 | 0.00 | 99 | 1014.0 |
| 20260510041744 | 51 | 189 | 0.0 | 0.0 | 0.00 | 0.00 | 0.00 | 99 | 1013.9 |
| 20260510041242 | 51 | 185 | 0.0 | 0.0 | 0.00 | 0.00 | 0.00 | 99 | 1013.7 |
| 20260510040739 | 51 | 180 | 0.0 | 0.0 | 0.00 | 0.00 | 0.00 | 99 | 1013.8 |
| 20260510040236 | 51 | 176 | 0.0 | 0.0 | 0.00 | 0.00 | 0.00 | 99 | 1013.7 |
| 20260510035731 | 51 | 184 | 0.0 | 0.0 | 0.00 | 0.27 | 0.27 | 99 | 1013.8 |
| 20260510035227 | 51 | 188 | 0.0 | 0.0 | 0.00 | 0.27 | 0.27 | 99 | 1013.6 |
| 20260510034723 | 51 | 190 | 0.0 | 0.0 | 0.00 | 0.27 | 0.27 | 99 | 1013.8 |
| 20260510034221 | 51 | 185 | 0.0 | 0.0 | 0.00 | 0.27 | 0.27 | 99 | 1013.8 |
| 20260510033717 | 51 | 189 | 0.0 | 0.0 | 0.00 | 0.27 | 0.27 | 99 | 1013.6 |
| 20260510033215 | 51 | 188 | 0.0 | 0.0 | 0.00 | 0.27 | 0.27 | 99 | 1013.8 |
| 20260510032711 | 51 | 183 | 0.0 | 0.0 | 0.00 | 0.27 | 0.27 | 99 | 1013.6 |
| 20260510032207 | 51 | 183 | 0.0 | 0.0 | 0.00 | 0.27 | 0.27 | 99 | 1013.7 |
| 20260510031701 | 51 | 183 | 0.0 | 0.0 | 0.00 | 0.27 | 0.27 | 99 | 1013.6 |
| 20260510031158 | 51 | 176 | 0.0 | 0.0 | 0.00 | 0.27 | 0.27 | 99 | 1013.6 |
| 20260510030652 | 51 | 201 | 0.0 | 0.0 | 0.00 | 0.27 | 0.27 | 99 | 1013.7 |
| 20260510030150 | 51 | 193 | 0.0 | 0.0 | 0.00 | 0.27 | 0.27 | 99 | 1013.7 |
| 20260510025647 | 51 | 190 | 0.0 | 0.0 | 0.00 | 0.27 | 0.27 | 99 | 1013.9 |
| 20260510025144 | 50 | 190 | 0.0 | 0.0 | 0.00 | 0.27 | 0.27 | 99 | 1013.8 |
| 20260510024641 | 50 | 190 | 0.0 | 0.0 | 0.00 | 0.27 | 0.27 | 99 | 1013.7 |
| 20260510024138 | 50 | 190 | 0.0 | 0.0 | 0.00 | 0.27 | 0.27 | 99 | 1014.0 |
| 20260510023634 | 50 | 189 | 0.0 | 0.0 | 0.00 | 0.27 | 0.27 | 99 | 1013.9 |
| 20260510023131 | 50 | 187 | 0.0 | 0.0 | 0.00 | 0.27 | 0.27 | 99 | 1013.9 |
| 20260510022631 | 50 | 185 | 0.0 | 0.0 | 0.00 | 0.27 | 0.27 | 99 | 1013.9 |
| 20260510022126 | 50 | 183 | 0.0 | 0.0 | 0.00 | 0.27 | 0.27 | 99 | 1013.8 |
| 20260510021622 | 50 | 183 | 0.0 | 0.0 | 0.00 | 0.27 | 0.27 | 99 | 1013.8 |
| 20260510021120 | 50 | 190 | 0.0 | 0.0 | 0.00 | 0.27 | 0.27 | 99 | 1013.6 |
| 20260510020613 | 50 | 187 | 0.0 | 0.0 | 0.00 | 0.27 | 0.27 | 99 | 1013.7 |
| 20260510020110 | 50 | 187 | 0.0 | 0.0 | 0.00 | 0.27 | 0.27 | 99 | 1013.9 |
| 20260510015606 | 50 | 183 | 0.0 | 0.0 | 0.00 | 0.27 | 0.27 | 99 | 1013.9 |
| 20260510015102 | 50 | 183 | 0.0 | 0.0 | 0.00 | 0.27 | 0.27 | 99 | 1014.0 |
| 20260510014558 | 50 | 183 | 0.0 | 0.0 | 0.00 | 0.27 | 0.27 | 99 | 1013.8 |
| 20260510014056 | 50 | 183 | 0.0 | 0.0 | 0.00 | 0.27 | 0.27 | 99 | 1013.7 |
| 20260510013555 | 50 | 183 | 0.0 | 0.0 | 0.00 | 0.27 | 0.27 | 99 | 1013.8 |
| 20260510013051 | 50 | 178 | 0.0 | 0.0 | 0.00 | 0.27 | 0.27 | 99 | 1013.8 |
| 20260510012545 | 50 | 187 | 0.0 | 0.0 | 0.00 | 0.27 | 0.27 | 99 | 1013.9 |
| 20260510012043 | 50 | 189 | 0.0 | 0.0 | 0.00 | 0.27 | 0.27 | 99 | 1014.0 |
| 20260510011542 | 50 | 190 | 0.0 | 0.0 | 0.00 | 0.27 | 0.27 | 99 | 1013.8 |
| 20260510011038 | 50 | 186 | 0.0 | 0.0 | 0.00 | 0.27 | 0.27 | 99 | 1013.8 |
| 20260510010535 | 50 | 186 | 0.0 | 0.0 | 0.00 | 0.27 | 0.27 | 99 | 1013.9 |
| 20260510010032 | 50 | 186 | 0.0 | 0.0 | 0.00 | 0.27 | 0.27 | 99 | 1013.9 |
| 20260510005527 | 50 | 186 | 0.0 | 0.0 | 0.00 | 0.27 | 0.27 | 99 | 1013.9 |
| 20260510005026 | 50 | 186 | 0.0 | 0.0 | 0.00 | 0.27 | 0.27 | 99 | 1014.0 |
| 20260510004523 | 50 | 186 | 0.0 | 0.0 | 0.00 | 0.27 | 0.27 | 99 | 1013.9 |
| 20260510004021 | 50 | 186 | 0.0 | 0.0 | 0.00 | 0.27 | 0.27 | 99 | 1013.9 |
| 20260510003517 | 50 | 186 | 0.0 | 0.0 | 0.00 | 0.27 | 0.27 | 99 | 1013.9 |
| 20260510003012 | 50 | 193 | 0.0 | 0.0 | 0.00 | 0.27 | 0.27 | 99 | 1013.8 |
| 20260510002508 | 50 | 187 | 0.0 | 0.0 | 0.00 | 0.27 | 0.27 | 99 | 1013.9 |
| 20260510002005 | 50 | 188 | 0.0 | 0.0 | 0.00 | 0.27 | 0.27 | 99 | 1013.7 |
| 20260510001503 | 50 | 193 | 0.0 | 0.0 | 0.00 | 0.27 | 0.27 | 99 | 1013.5 |
| 20260510001001 | 50 | 192 | 0.0 | 0.0 | 0.00 | 0.27 | 0.27 | 99 | 1013.5 |
| 20260510000456 | 50 | 188 | 0.0 | 0.0 | 0.00 | 0.27 | 0.27 | 99 | 1013.4 |
| 20260509235952 | 50 | 192 | 0.0 | 0.0 | 0.00 | 0.27 | 0.27 | 99 | 1013.3 |
| 20260509235449 | 50 | 185 | 0.0 | 0.0 | 0.00 | 0.27 | 0.27 | 99 | 1013.1 |
| 20260509234945 | 50 | 188 | 0.0 | 0.0 | 0.00 | 0.27 | 0.27 | 99 | 1013.4 |
| 20260509234442 | 50 | 188 | 0.0 | 0.0 | 0.00 | 0.27 | 0.27 | 99 | 1013.4 |
| 20260509233941 | 50 | 186 | 0.0 | 0.0 | 0.00 | 0.27 | 0.27 | 99 | 1013.0 |
| 20260509233438 | 50 | 197 | 0.0 | 0.0 | 0.00 | 0.27 | 0.27 | 99 | 1013.2 |
| 20260509232934 | 50 | 186 | 0.0 | 0.0 | 0.00 | 0.27 | 0.27 | 99 | 1013.2 |
| 20260509232432 | 50 | 185 | 0.0 | 0.0 | 0.00 | 0.27 | 0.27 | 99 | 1013.2 |
| 20260509231927 | 50 | 189 | 0.0 | 0.0 | 0.00 | 0.27 | 0.27 | 99 | 1013.2 |
| 20260509231424 | 50 | 186 | 0.0 | 0.0 | 0.00 | 0.27 | 0.27 | 99 | 1013.1 |
| 20260509230922 | 50 | 189 | 0.0 | 0.0 | 0.00 | 0.27 | 0.27 | 99 | 1013.0 |
| 20260509230419 | 50 | 187 | 0.0 | 0.0 | 0.00 | 0.27 | 0.27 | 99 | 1013.0 |
| 20260509225915 | 50 | 187 | 0.0 | 0.0 | 0.00 | 0.27 | 0.27 | 99 | 1013.0 |
| 20260509225411 | 50 | 187 | 0.0 | 0.0 | 0.00 | 0.27 | 0.27 | 99 | 1013.1 |
| 20260509224908 | 50 | 182 | 0.0 | 0.0 | 0.00 | 0.27 | 0.27 | 99 | 1013.2 |
| 20260509224403 | 50 | 182 | 0.0 | 1.0 | 0.00 | 0.27 | 0.27 | 99 | 1013.1 |
| 20260509223901 | 50 | 187 | 0.0 | 0.0 | 0.00 | 0.27 | 0.27 | 99 | 1012.9 |
| 20260509223357 | 50 | 192 | 0.0 | 0.0 | 0.00 | 0.27 | 0.27 | 99 | 1013.0 |
| 20260509222854 | 50 | 189 | 0.0 | 0.0 | 0.00 | 0.27 | 0.27 | 99 | 1013.1 |
| 20260509222349 | 50 | 184 | 0.0 | 0.0 | 0.07 | 0.27 | 0.27 | 99 | 1013.0 |
| 20260509221844 | 50 | 189 | 0.0 | 0.0 | 0.07 | 0.27 | 0.27 | 99 | 1013.2 |
| 20260509221342 | 50 | 185 | 0.0 | 0.0 | 0.00 | 0.26 | 0.26 | 99 | 1013.2 |
| 20260509220837 | 50 | 186 | 0.0 | 0.0 | 0.00 | 0.26 | 0.26 | 99 | 1013.3 |
| 20260509220334 | 50 | 180 | 0.0 | 0.0 | 0.00 | 0.26 | 0.26 | 99 | 1013.1 |
| 20260509215829 | 49 | 188 | 0.0 | 0.0 | 0.00 | 0.26 | 0.26 | 99 | 1013.3 |
| 20260509215326 | 49 | 183 | 0.0 | 0.0 | 0.00 | 0.26 | 0.26 | 99 | 1013.6 |
| 20260509214823 | 49 | 187 | 0.0 | 0.0 | 0.00 | 0.26 | 0.26 | 99 | 1013.4 |
| 20260509214320 | 49 | 183 | 0.0 | 0.0 | 0.05 | 0.26 | 0.26 | 99 | 1013.4 |
| 20260509213817 | 49 | 187 | 0.0 | 0.0 | 0.05 | 0.26 | 0.26 | 99 | 1013.5 |
| 20260509213312 | 49 | 183 | 0.0 | 0.0 | 0.00 | 0.25 | 0.25 | 99 | 1013.8 |
| 20260509212810 | 49 | 187 | 0.0 | 0.0 | 0.00 | 0.25 | 0.25 | 99 | 1013.7 |
| 20260509212308 | 49 | 186 | 0.0 | 0.0 | 0.00 | 0.25 | 0.25 | 99 | 1013.6 |
| 20260509211803 | 49 | 178 | 0.0 | 0.0 | 0.00 | 0.25 | 0.25 | 99 | 1013.7 |
| 20260509211259 | 49 | 187 | 0.0 | 0.0 | 0.00 | 0.25 | 0.25 | 99 | 1013.8 |
| 20260509210756 | 49 | 183 | 0.0 | 0.0 | 0.00 | 0.25 | 0.25 | 99 | 1013.8 |
| 20260509210254 | 49 | 178 | 0.0 | 0.0 | 0.00 | 0.25 | 0.25 | 99 | 1013.7 |
| 20260509205753 | 49 | 182 | 0.0 | 0.0 | 0.00 | 0.25 | 0.25 | 99 | 1013.7 |
| 20260509205248 | 49 | 184 | 0.0 | 0.0 | 0.00 | 0.25 | 0.25 | 99 | 1014.0 |
| 20260509204744 | 49 | 184 | 0.0 | 0.0 | 0.00 | 0.25 | 0.25 | 99 | 1013.9 |
| 20260509204241 | 49 | 187 | 0.0 | 0.0 | 0.00 | 0.25 | 0.25 | 99 | 1014.0 |
| 20260509203737 | 48 | 183 | 0.0 | 0.0 | 0.00 | 0.25 | 0.25 | 99 | 1014.1 |
| 20260509203235 | 48 | 183 | 0.0 | 0.0 | 0.00 | 0.25 | 0.25 | 99 | 1014.3 |
| 20260509202730 | 48 | 183 | 0.0 | 0.0 | 0.00 | 0.25 | 0.25 | 99 | 1014.1 |
| 20260509202227 | 48 | 183 | 0.0 | 0.0 | 0.00 | 0.25 | 0.25 | 99 | 1014.3 |
| 20260509201721 | 48 | 183 | 0.0 | 0.0 | 0.00 | 0.25 | 0.25 | 99 | 1014.3 |
| 20260509201218 | 48 | 184 | 0.0 | 0.0 | 0.00 | 0.25 | 0.25 | 99 | 1014.6 |
| 20260509200714 | 48 | 184 | 0.0 | 0.0 | 0.00 | 0.25 | 0.25 | 99 | 1014.3 |
| 20260509200209 | 48 | 184 | 0.0 | 0.0 | 0.00 | 0.25 | 0.25 | 99 | 1014.5 |
| 20260509195705 | 48 | 188 | 0.0 | 0.0 | 0.00 | 0.25 | 0.25 | 99 | 1014.6 |
| 20260509195201 | 48 | 187 | 0.0 | 0.0 | 0.00 | 0.25 | 0.25 | 99 | 1014.7 |
| 20260509194655 | 48 | 190 | 0.0 | 0.0 | 0.00 | 0.25 | 0.25 | 99 | 1014.8 |
| 20260509194152 | 48 | 201 | 0.0 | 0.0 | 0.00 | 0.25 | 0.25 | 99 | 1014.7 |
| 20260509193648 | 48 | 190 | 0.0 | 0.0 | 0.00 | 0.25 | 0.25 | 99 | 1014.6 |
| 20260509193144 | 48 | 187 | 0.0 | 0.0 | 0.00 | 0.25 | 0.25 | 99 | 1014.6 |
| 20260509192640 | 48 | 187 | 0.0 | 0.0 | 0.00 | 0.25 | 0.25 | 99 | 1014.6 |
| 20260509192135 | 48 | 185 | 0.0 | 0.0 | 0.00 | 0.25 | 0.25 | 99 | 1014.7 |
| 20260509191629 | 48 | 186 | 0.0 | 0.0 | 0.00 | 0.25 | 0.25 | 99 | 1014.8 |
| 20260509191127 | 48 | 187 | 0.0 | 0.0 | 0.00 | 0.25 | 0.25 | 99 | 1014.7 |
| 20260509190623 | 48 | 187 | 0.0 | 0.0 | 0.00 | 0.25 | 0.25 | 99 | 1014.9 |
| 20260509190120 | 48 | 187 | 0.0 | 0.0 | 0.00 | 0.25 | 0.25 | 99 | 1014.8 |
| 20260509185618 | 48 | 187 | 0.0 | 0.0 | 0.00 | 0.25 | 0.25 | 99 | 1014.8 |
| 20260509185114 | 48 | 208 | 0.0 | 0.0 | 0.00 | 0.25 | 0.25 | 99 | 1015.0 |
| 20260509184612 | 48 | 188 | 0.0 | 1.0 | 0.00 | 0.25 | 0.25 | 99 | 1014.9 |
| 20260509184108 | 48 | 191 | 0.0 | 0.0 | 0.00 | 0.25 | 0.25 | 99 | 1014.8 |
| 20260509183604 | 48 | 183 | 0.0 | 0.0 | 0.00 | 0.25 | 0.25 | 99 | 1014.9 |
| 20260509183100 | 48 | 185 | 0.0 | 0.0 | 0.00 | 0.25 | 0.25 | 99 | 1014.9 |
| 20260509182556 | 48 | 188 | 0.0 | 1.0 | 0.00 | 0.25 | 0.25 | 99 | 1015.2 |
| 20260509182053 | 48 | 186 | 0.0 | 0.0 | 0.00 | 0.25 | 0.25 | 99 | 1015.0 |
| 20260509181552 | 48 | 186 | 0.0 | 0.0 | 0.00 | 0.25 | 0.25 | 99 | 1015.1 |
| 20260509181048 | 48 | 183 | 0.0 | 0.0 | 0.07 | 0.25 | 0.25 | 99 | 1014.8 |
| 20260509180544 | 48 | 188 | 0.0 | 0.0 | 0.07 | 0.25 | 0.25 | 99 | 1015.0 |
| 20260509180042 | 48 | 187 | 0.0 | 0.0 | 0.00 | 0.24 | 0.24 | 99 | 1015.2 |
| 20260509175537 | 47 | 192 | 0.0 | 0.0 | 0.00 | 0.24 | 0.24 | 99 | 1015.1 |
| 20260509175035 | 47 | 192 | 0.0 | 0.0 | 0.00 | 0.24 | 0.24 | 99 | 1015.2 |
| 20260509174531 | 47 | 182 | 0.0 | 1.0 | 0.00 | 0.24 | 0.24 | 99 | 1015.1 |
| 20260509174026 | 47 | 184 | 1.0 | 1.0 | 0.00 | 0.24 | 0.24 | 99 | 1015.4 |
| 20260509173520 | 47 | 185 | 0.0 | 0.0 | 0.00 | 0.24 | 0.24 | 99 | 1015.2 |
| 20260509173017 | 47 | 188 | 1.0 | 1.0 | 0.00 | 0.24 | 0.24 | 99 | 1015.3 |
| 20260509172515 | 47 | 188 | 0.0 | 1.0 | 0.00 | 0.24 | 0.24 | 99 | 1015.4 |
| 20260509172010 | 47 | 187 | 0.0 | 0.0 | 0.00 | 0.24 | 0.24 | 99 | 1015.6 |
| 20260509171506 | 47 | 192 | 0.0 | 1.0 | 0.00 | 0.24 | 0.24 | 99 | 1015.5 |
| 20260509171003 | 47 | 212 | 1.0 | 1.0 | 0.00 | 0.24 | 0.24 | 99 | 1015.4 |
| 20260509170458 | 47 | 185 | 1.0 | 1.0 | 0.00 | 0.24 | 0.24 | 99 | 1015.9 |
| 20260509165954 | 46 | 186 | 0.0 | 0.0 | 0.00 | 0.24 | 0.24 | 99 | 1015.7 |
| 20260509165453 | 46 | 188 | 0.0 | 0.0 | 0.00 | 0.24 | 0.24 | 99 | 1015.8 |
| 20260509164949 | 46 | 199 | 0.0 | 0.0 | 0.00 | 0.24 | 0.24 | 99 | 1015.9 |
| 20260509164445 | 46 | 188 | 0.0 | 0.0 | 0.00 | 0.24 | 0.24 | 99 | 1015.8 |
| 20260509163941 | 46 | 185 | 0.0 | 0.0 | 0.05 | 0.24 | 0.24 | 99 | 1016.0 |
| 20260509163439 | 46 | 189 | 0.0 | 0.0 | 0.05 | 0.24 | 0.24 | 99 | 1016.1 |
| 20260509162937 | 46 | 184 | 0.0 | 0.0 | 0.00 | 0.23 | 0.23 | 99 | 1016.0 |
| 20260509162437 | 46 | 179 | 0.0 | 0.0 | 0.07 | 0.23 | 0.23 | 98 | 1016.1 |
| 20260509161932 | 45 | 187 | 0.0 | 0.0 | 0.07 | 0.23 | 0.23 | 98 | 1016.0 |
| 20260509161429 | 45 | 179 | 0.0 | 0.0 | 0.05 | 0.22 | 0.22 | 98 | 1016.4 |
| 20260509160924 | 45 | 184 | 0.0 | 0.0 | 0.12 | 0.22 | 0.22 | 98 | 1016.3 |
| 20260509160420 | 45 | 181 | 0.0 | 0.0 | 0.14 | 0.21 | 0.21 | 98 | 1016.4 |
| 20260509155915 | 45 | 188 | 0.0 | 0.0 | 0.12 | 0.20 | 0.20 | 98 | 1016.7 |
| 20260509155412 | 45 | 188 | 0.0 | 0.0 | 0.05 | 0.19 | 0.19 | 97 | 1016.5 |
| 20260509154909 | 45 | 192 | 0.0 | 0.0 | 0.12 | 0.19 | 0.19 | 97 | 1016.4 |
| 20260509154405 | 45 | 187 | 0.0 | 0.0 | 0.12 | 0.18 | 0.18 | 97 | 1016.6 |
| 20260509153902 | 45 | 187 | 0.0 | 0.0 | 0.12 | 0.17 | 0.17 | 97 | 1016.7 |
| 20260509153359 | 45 | 189 | 0.0 | 0.0 | 0.07 | 0.16 | 0.16 | 96 | 1016.9 |
| 20260509152856 | 45 | 188 | 0.0 | 0.0 | 0.12 | 0.16 | 0.16 | 96 | 1016.8 |
| 20260509152352 | 45 | 185 | 0.0 | 0.0 | 0.17 | 0.15 | 0.15 | 96 | 1016.9 |
| 20260509151849 | 45 | 185 | 0.0 | 0.0 | 0.12 | 0.13 | 0.13 | 95 | 1017.0 |
| 20260509151345 | 45 | 184 | 0.0 | 1.0 | 0.12 | 0.12 | 0.12 | 95 | 1017.0 |
| 20260509150844 | 45 | 182 | 0.0 | 0.0 | 0.12 | 0.11 | 0.11 | 95 | 1016.9 |
| 20260509150341 | 45 | 184 | 0.0 | 0.0 | 0.07 | 0.10 | 0.10 | 95 | 1017.0 |